createdAt,value
2023-02-20T00:00:46.501Z,0.90
2023-02-20T00:04:38.851Z,0.80
2023-02-20T00:08:20.286Z,0.80
2023-02-20T00:12:08.371Z,0.90
2023-02-20T00:16:29.648Z,1.40
2023-02-20T00:25:25.533Z,0.90
2023-02-20T00:29:27.733Z,1.00
2023-02-20T00:33:35.543Z,1.00
2023-02-20T00:37:29.748Z,0.80
2023-02-20T00:41:39.648Z,0.90
2023-02-20T00:45:36.121Z,0.80
2023-02-20T00:49:32.296Z,1.10
2023-02-20T00:53:35.905Z,0.90
2023-02-20T00:57:38.582Z,0.80
2023-02-20T01:06:37.967Z,1.40
2023-02-20T01:10:26.533Z,1.30
2023-02-20T01:14:22.671Z,0.70
2023-02-20T01:18:12.943Z,1.10
2023-02-20T01:22:08.215Z,0.80
2023-02-20T01:26:12.840Z,0.90
2023-02-20T01:30:07.352Z,1.10
2023-02-20T01:34:11.048Z,1.00
2023-02-20T01:38:14.642Z,1.10
2023-02-20T01:42:17.037Z,1.00
2023-02-20T01:46:23.818Z,1.00
2023-02-20T01:50:36.633Z,1.40
2023-02-20T01:54:31.711Z,1.00
2023-02-20T01:58:29.536Z,1.00
2023-02-20T02:02:26.096Z,0.80
2023-02-20T02:06:36.785Z,1.10
2023-02-20T02:10:49.395Z,0.80
2023-02-20T02:14:44.301Z,0.90
2023-02-20T02:19:03.274Z,1.40
2023-02-20T02:23:04.810Z,1.20
2023-02-20T02:31:02.786Z,1.10
2023-02-20T02:35:12.627Z,1.30
2023-02-20T02:39:16.739Z,1.10
2023-02-20T02:43:24.988Z,1.70
2023-02-20T02:47:21.950Z,1.80
2023-02-20T02:51:24.499Z,1.60
2023-02-20T02:55:16.011Z,1.60
2023-02-20T02:59:19.641Z,1.40
2023-02-20T03:03:35.459Z,1.30
2023-02-20T03:07:42.351Z,1.80
2023-02-20T03:11:39.037Z,1.80
2023-02-20T03:15:54.556Z,1.90
2023-02-20T03:20:05.662Z,2.30
2023-02-20T03:24:09.624Z,1.80
2023-02-20T03:28:15.923Z,1.70
2023-02-20T03:32:24.220Z,1.60
2023-02-20T03:36:24.806Z,1.40
2023-02-20T03:40:20.493Z,1.50
2023-02-20T03:44:22.643Z,1.70
2023-02-20T03:48:26.250Z,1.80
2023-02-20T03:52:29.296Z,1.50
2023-02-20T03:56:26.062Z,1.70
2023-02-20T04:00:35.382Z,1.80
2023-02-20T04:04:30.508Z,1.50
2023-02-20T04:08:49.653Z,1.80
2023-02-20T04:12:51.738Z,1.80
2023-02-20T04:16:54.027Z,1.40
2023-02-20T04:20:58.100Z,1.80
2023-02-20T04:25:00.129Z,1.90
2023-02-20T04:28:55.771Z,2.00
2023-02-20T04:37:15.953Z,2.10
2023-02-20T04:41:12.535Z,2.20
2023-02-20T04:45:08.635Z,1.80
2023-02-20T04:49:15.718Z,2.00
2023-02-20T04:53:04.560Z,2.20
2023-02-20T04:56:58.583Z,1.90
2023-02-20T05:01:02.251Z,2.30
2023-02-20T05:05:05.936Z,2.40
2023-02-20T05:09:09.506Z,2.40
2023-02-20T05:13:13.406Z,2.00
2023-02-20T05:17:17.474Z,1.90
2023-02-20T05:21:19.556Z,2.20
2023-02-20T05:25:16.716Z,2.60
2023-02-20T05:29:26.043Z,2.50
2023-02-20T05:33:20.336Z,2.60
2023-02-20T05:37:23.984Z,2.30
2023-02-20T05:41:20.184Z,2.60
2023-02-20T05:45:23.739Z,2.20
2023-02-20T05:49:30.116Z,2.00
2023-02-20T05:53:33.708Z,2.80
2023-02-20T05:57:30.392Z,2.70
2023-02-20T06:01:41.129Z,2.00
2023-02-20T06:05:29.508Z,2.20
2023-02-20T06:09:33.091Z,2.60
2023-02-20T06:13:25.379Z,2.40
2023-02-20T06:17:28.945Z,2.40
2023-02-20T06:21:35.940Z,2.70
2023-02-20T06:25:35.304Z,2.90
2023-02-20T06:29:35.093Z,2.30
2023-02-20T06:33:38.659Z,3.50
2023-02-20T06:37:39.574Z,4.60
2023-02-20T06:41:43.199Z,3.40
2023-02-20T06:45:37.237Z,3.20
2023-02-20T06:49:38.067Z,3.50
2023-02-20T06:53:34.493Z,3.40
2023-02-20T06:57:38.031Z,2.50
2023-02-20T07:01:49.554Z,3.60
2023-02-20T07:05:53.342Z,2.60
2023-02-20T07:09:48.329Z,2.90
2023-02-20T07:13:52.343Z,3.30
2023-02-20T07:17:56.153Z,3.20
2023-02-20T07:22:03.897Z,2.80
2023-02-20T07:26:07.538Z,3.10
2023-02-20T07:30:11.360Z,4.40
2023-02-20T07:39:02.475Z,4.00
2023-02-20T07:43:06.117Z,3.90
2023-02-20T07:51:58.825Z,4.30
2023-02-20T07:55:51.426Z,3.90
2023-02-20T07:59:53.735Z,3.50
2023-02-20T08:08:52.172Z,4.30
2023-02-20T08:12:55.769Z,4.60
2023-02-20T08:16:59.383Z,4.70
2023-02-20T08:21:02.981Z,5.60
2023-02-20T08:25:07.397Z,5.50
2023-02-20T08:29:09.978Z,5.70
2023-02-20T08:33:13.733Z,5.90
2023-02-20T08:37:17.445Z,5.00
2023-02-20T09:05:00.445Z,5.20
2023-02-20T09:16:01.722Z,4.60
2023-02-20T09:24:48.976Z,3.40
2023-02-20T09:28:52.674Z,3.90
2023-02-20T09:32:55.072Z,3.00
2023-02-20T09:36:58.774Z,3.90
2023-02-20T09:46:13.421Z,2.60
2023-02-20T09:50:20.208Z,2.90
2023-02-20T09:54:29.548Z,2.70
2023-02-20T09:58:33.214Z,2.60
2023-02-20T10:02:39.916Z,2.70
2023-02-20T10:07:00.247Z,2.60
2023-02-20T10:11:06.813Z,2.10
2023-02-20T10:15:24.238Z,2.60
2023-02-20T10:19:43.111Z,2.90
2023-02-20T10:24:03.806Z,2.20
2023-02-20T10:28:26.521Z,1.70
2023-02-20T10:32:33.060Z,2.80
2023-02-20T11:38:59.609Z,2.20
2023-02-20T11:43:04.783Z,2.10
2023-02-20T12:46:12.565Z,2.40
2023-02-20T12:50:31.446Z,2.10
2023-02-20T12:54:33.614Z,2.50
2023-02-20T12:58:55.698Z,2.30
2023-02-20T13:02:59.360Z,1.60
2023-02-20T13:07:14.989Z,1.80
2023-02-20T13:11:18.652Z,2.10
2023-02-20T13:15:34.362Z,2.00
2023-02-20T13:19:50.189Z,1.70
2023-02-20T13:24:00.237Z,1.80
2023-02-20T13:28:29.260Z,1.60
2023-02-20T13:32:35.910Z,1.40
2023-02-20T13:36:42.469Z,1.90
2023-02-20T13:41:06.888Z,1.80
2023-02-20T13:45:29.103Z,1.40
2023-02-20T13:54:14.471Z,1.60
2023-02-20T13:54:21.308Z,1.80
2023-02-20T13:58:27.512Z,1.10
2023-02-20T14:02:37.706Z,1.80
2023-02-20T14:06:49.573Z,1.60
2023-02-20T14:11:10.202Z,1.30
2023-02-20T14:20:14.985Z,1.10
2023-02-20T14:48:46.055Z,1.70
2023-02-20T14:52:46.378Z,1.80
2023-02-20T14:56:55.725Z,2.00
2023-02-20T15:01:05.766Z,1.90
2023-02-20T15:05:15.431Z,2.30
2023-02-20T15:14:06.242Z,2.10
2023-02-20T15:23:15.229Z,2.30
2023-02-20T15:27:31.837Z,1.80
2023-02-20T15:31:48.811Z,2.00
2023-02-20T15:35:52.742Z,1.90
2023-02-20T15:39:54.767Z,2.30
2023-02-20T15:43:51.839Z,2.40
2023-02-20T15:47:56.571Z,1.70
2023-02-20T15:52:09.739Z,2.10
2023-02-20T15:56:10.014Z,2.30
2023-02-20T15:59:56.462Z,1.80
2023-02-20T16:08:55.561Z,2.20
2023-02-20T16:12:54.101Z,2.50
2023-02-20T16:17:00.488Z,2.90
2023-02-20T16:21:35.463Z,3.30
2023-02-20T16:25:39.181Z,2.80
2023-02-20T16:29:40.139Z,3.20
2023-02-20T16:33:43.126Z,3.20
2023-02-20T16:37:45.716Z,2.50
2023-02-20T16:41:48.248Z,2.80
2023-02-20T16:45:57.743Z,2.80
2023-02-20T16:50:01.409Z,2.10
2023-02-20T16:58:16.150Z,2.90
2023-02-20T17:02:26.300Z,3.00
2023-02-20T17:06:30.754Z,3.00
2023-02-20T17:10:34.804Z,2.50
2023-02-20T17:15:04.296Z,3.00
2023-02-20T17:23:50.007Z,2.60
2023-02-20T17:28:09.208Z,2.70
2023-02-20T17:32:11.763Z,3.10
2023-02-20T17:36:18.618Z,2.20
2023-02-20T17:40:27.943Z,2.60
2023-02-20T17:49:33.810Z,3.10
2023-02-20T17:51:14.644Z,2.70
2023-02-20T17:54:24.924Z,2.60
2023-02-20T17:58:37.385Z,2.90
2023-02-20T18:03:06.428Z,3.20
2023-02-20T18:07:39.678Z,3.00
2023-02-20T18:11:44.171Z,3.60
2023-02-20T18:16:19.181Z,3.70
2023-02-20T18:20:50.301Z,3.20
2023-02-20T18:29:52.291Z,3.40
2023-02-20T18:34:08.632Z,2.60
2023-02-20T18:38:21.898Z,2.60
2023-02-20T18:43:07.801Z,3.30
2023-02-20T18:47:44.240Z,3.30
2023-02-20T18:51:25.305Z,2.40
2023-02-20T18:55:19.422Z,3.00
2023-02-20T18:59:25.721Z,3.70
2023-02-20T19:04:33.506Z,3.40
2023-02-20T19:07:53.948Z,3.10
2023-02-20T19:12:28.223Z,3.70
2023-02-20T19:17:14.801Z,3.40
2023-02-20T19:21:40.058Z,3.30
2023-02-20T19:25:31.416Z,3.30
2023-02-20T19:29:24.225Z,3.50
2023-02-20T19:33:23.601Z,3.20
2023-02-20T19:37:29.964Z,3.50
2023-02-20T19:41:41.070Z,4.20
2023-02-20T19:46:16.941Z,3.30
2023-02-20T19:55:47.301Z,3.30
2023-02-20T20:00:00.247Z,2.80
2023-02-20T20:04:03.790Z,3.30
2023-02-20T20:08:32.084Z,3.40
2023-02-20T20:12:34.785Z,2.70
2023-02-20T20:16:34.166Z,3.00
2023-02-20T20:20:55.324Z,3.50
2023-02-20T20:25:10.744Z,2.70
2023-02-20T20:28:40.390Z,3.20
2023-02-20T20:32:13.472Z,3.10
2023-02-20T20:36:23.379Z,2.70
2023-02-20T20:40:04.822Z,3.10
2023-02-20T20:44:26.694Z,3.10
2023-02-20T20:48:35.023Z,2.30
2023-02-20T20:52:19.524Z,2.70
2023-02-20T20:56:31.937Z,3.00
2023-02-20T21:00:35.605Z,3.10
2023-02-20T21:04:34.147Z,2.80
2023-02-20T21:08:37.833Z,3.60
2023-02-20T21:12:58.542Z,4.00
2023-02-20T21:16:54.925Z,3.10
2023-02-20T21:20:58.650Z,3.20
2023-02-20T21:25:01.145Z,2.30
2023-02-20T21:29:05.283Z,2.50
2023-02-20T21:33:10.991Z,3.60
2023-02-20T21:37:07.244Z,3.20
2023-02-20T21:41:11.084Z,2.80
2023-02-20T21:45:35.358Z,3.00
2023-02-20T21:49:38.939Z,3.30
2023-02-20T21:53:42.487Z,2.50
2023-02-20T21:57:46.567Z,2.90
2023-02-20T22:01:29.894Z,2.70
2023-02-20T22:05:12.488Z,2.70
2023-02-20T22:09:23.975Z,3.00
2023-02-20T22:13:25.899Z,3.20
2023-02-20T22:17:26.725Z,3.20
2023-02-20T22:21:28.593Z,3.10
2023-02-20T22:25:31.418Z,3.00
2023-02-20T22:29:33.764Z,2.60
2023-02-20T22:33:35.919Z,2.50
2023-02-20T22:37:38.689Z,2.90
2023-02-20T22:41:41.300Z,2.50
2023-02-20T22:45:43.788Z,3.00
2023-02-20T22:49:54.432Z,3.10
2023-02-20T22:53:57.152Z,3.20
2023-02-20T22:58:00.611Z,2.90
2023-02-20T23:06:28.872Z,2.60
2023-02-20T23:10:30.415Z,2.40
2023-02-20T23:14:10.455Z,3.00
2023-02-20T23:18:19.258Z,3.90
2023-02-20T23:22:09.830Z,3.30
2023-02-20T23:25:57.539Z,3.40
2023-02-20T23:29:52.191Z,3.70
2023-02-20T23:33:54.698Z,3.10
2023-02-20T23:37:57.683Z,2.60
2023-02-20T23:42:00.244Z,3.20
2023-02-20T23:46:02.526Z,3.30
2023-02-20T23:50:04.626Z,2.90
2023-02-20T23:54:06.315Z,3.50
2023-02-20T23:58:16.709Z,3.40
